WEATHER DATA

YESTERDAY
Time Temp. Dewp. Hum. Wind dir Wind speed Wind gust Bar. 1h Prec. 24h Prec.
00:09 9.2 -5.2 34 142 0.6 1.7 1014.5 0.0000 0.0000
00:19 9.3 -5.1 34 142 0.6 1.7 1014.5 0.0000 0.0000
00:29 9.3 -5.1 34 155 0.6 1.4 1014.4 0.0000 0.0000
00:39 9.2 -5.2 34 145 0.8 1.7 1014.5 0.0000 0.0000
00:49 8.9 -5.1 35 148 0.8 1.9 1014.3 0.0000 0.0000
00:59 8.8 -5.2 35 145 0.8 2.2 1014.5 0.0000 0.0000
01:09 8.8 -5.2 35 146 0.8 1.9 1014.5 0.0000 0.0000
01:19 8.8 -5.2 35 145 0.6 1.4 1014.4 0.0000 0.0000
01:29 8.8 -5.2 35 147 0.6 1.4 1014.4 0.0000 0.0000
01:39 8.9 -5.1 35 142 0.6 1.4 1014.5 0.0000 0.0000
01:49 8.9 -5.1 35 150 0.6 1.4 1014.5 0.0000 0.0000
01:59 8.9 -5.1 35 163 0.6 1.4 1014.5 0.0000 0.0000
02:09 8.6 -5 36 169 0.3 1.4 1014.5 0.0000 0.0000
02:19 8.2 -5.3 36 165 0.3 1.1 1014.5 0.0000 0.0000
02:30 7.9 -5.2 37 172 0.3 1.1 1014.5 0.0000 0.0000
02:39 7.8 -5.3 37 167 0.3 0.8 1014.5 0.0000 0.0000
02:49 7.7 -5.1 38 152 0.6 1.4 1014.4 0.0000 0.0000
03:00 7.6 -5.1 38 156 0.6 1.4 1014.7 0.0000 0.0000
03:09 7.4 -5 39 153 0.3 1.1 1014.5 0.0000 0.0000
03:19 7.8 -4.7 39 146 0.6 1.1 1014.7 0.0000 0.0000
03:29 8.2 -4.7 38 135 0.6 1.7 1014.5 0.0000 0.0000
03:40 8.6 -4.7 37 138 0.6 1.4 1014.5 0.0000 0.0000
03:49 8.8 -4.8 36 157 0.3 1.4 1014.7 0.0000 0.0000
03:59 8.9 -4.7 36 145 0.6 1.4 1014.8 0.0000 0.0000
04:10 9 -4.7 36 138 0.6 1.7 1014.8 0.0000 0.0000
04:20 9.2 -4.5 36 137 0.6 1.4 1014.7 0.0000 0.0000
04:29 9.2 -4.5 36 143 0.6 1.4 1014.9 0.0000 0.0000
04:40 9.1 -4.6 36 156 0.3 1.1 1014.8 0.0000 0.0000
04:50 9 -4.7 36 171 0.3 1.1 1014.8 0.0000 0.0000
04:59 9.1 -4.6 36 153 0.3 1.4 1014.8 0.0000 0.0000
05:09 9.1 -4.9 35 149 0.3 1.4 1014.7 0.0000 0.0000
05:20 9.2 -4.8 35 144 0.3 1.1 1014.9 0.0000 0.0000
05:30 9.1 -4.9 35 156 0.3 0.8 1014.9 0.0000 0.0000
05:39 8.8 -5.2 35 146 0.8 1.7 1015 0.0000 0.0000
05:50 8.6 -5.3 35 146 0.6 1.4 1014.9 0.0000 0.0000
06:00 8.6 -5.3 35 158 0.3 1.4 1015 0.0000 0.0000
06:09 8.5 -5.7 34 151 0.6 1.4 1015.1 0.0000 0.0000
06:19 8.4 -5.8 34 146 0.8 1.7 1015.2 0.0000 0.0000
06:30 8.3 -5.5 35 148 0.8 1.9 1015.1 0.0000 0.0000
06:40 8.3 -5.5 35 147 0.8 1.7 1015.1 0.0000 0.0000
06:49 8.2 -5.3 36 149 0.6 2.2 1015.2 0.0000 0.0000
07:00 8.2 -5.6 35 146 0.8 1.7 1015.2 0.0000 0.0000
07:10 8.2 -5.6 35 143 0.8 1.9 1015.2 0.0000 0.0000
07:20 8.3 -5.5 35 149 0.6 1.7 1015.4 0.0000 0.0000
07:30 8.6 -5.6 34 146 0.8 1.7 1015.4 0.0000 0.0000
07:40 8.8 -5.5 34 150 0.6 1.7 1015.4 0.0000 0.0000
07:50 9.1 -5.3 34 149 0.6 1.9 1015.6 0.0000 0.0000
07:59 9.4 -5 34 144 0.3 1.4 1015.6 0.0000 0.0000
08:10 9.9 -4.3 35 157 0.3 1.4 1015.8 0.0000 0.0000
08:20 10.3 -4 35 146 0.3 1.4 1015.8 0.0000 0.0000
08:30 10.8 -3.6 35 156 0.6 1.7 1016.1 0.0000 0.0000
08:40 11.2 -3.3 35 153 0.6 2.5 1016.3 0.0000 0.0000
08:50 11.6 -3.3 34 145 0.6 1.7 1016.3 0.0000 0.0000
09:00 12.2 -2.8 34 147 0.6 1.1 1016.3 0.0000 0.0000
09:10 12.8 -3.1 32 135 0.6 1.7 1016.5 0.0000 0.0000
09:20 13.1 -3.2 31 90 0.6 1.4 1016.3 0.0000 0.0000
09:30 13.4 -3.4 30 35 0.3 1.4 1016.4 0.0000 0.0000
09:40 13.6 -3.2 30 180 0.3 0.8 1016.5 0.0000 0.0000
09:50 14 -2.9 30 171 0.3 1.1 1016.6 0.0000 0.0000
10:00 14.4 -3.4 28 170 0.3 1.1 1016.8 0.0000 0.0000
10:10 15.1 -2.1 30 167 0.6 1.4 1016.6 0.0000 0.0000
10:20 15.8 -3.2 26 135 0.6 1.4 1016.6 0.0000 0.0000
10:30 16.4 -3.2 25 20 0.6 1.7 1016.5 0.0000 0.0000
10:40 16.8 -2.9 25 15 0.8 1.9 1016.6 0.0000 0.0000
10:50 17.6 -1.9 26 168 0.8 1.9 1016.4 0.0000 0.0000
11:00 18.4 -0.8 27 177 1.1 2.2 1016.4 0.0000 0.0000
11:10 19.3 -0.1 27 175 1.1 1.7 1016.2 0.0000 0.0000
11:20 19.4 -1 25 270 0.6 1.4 1016.1 0.0000 0.0000
11:30 19.6 -1.8 23 190 0.8 1.9 1015.8 0.0000 0.0000
11:40 19.9 -2.1 22 295 0.8 2.5 1015.8 0.0000 0.0000
11:50 20.2 -3.1 20 252 0.8 2.5 1015.7 0.0000 0.0000
12:00 19.5 -5.5 17 54 0.6 1.7 1015.5 0.0000 0.0000
12:11 19.2 -2.1 23 217 0.6 1.7 1015.1 0.0000 0.0000
12:20 19.6 -2.9 21 225 0.6 1.4 1015.2 0.0000 0.0000
12:30 20 -3.2 20 291 0.6 1.4 1015 0.0000 0.0000
12:41 20.5 -2.3 21 254 0.8 2.2 1014.9 0.0000 0.0000
12:50 20.5 -2.3 21 229 0.8 2.5 1014.7 0.0000 0.0000
13:10 21.6 -2.6 19 203 1.1 2.2 1014.3 0.0000 0.0000
13:21 21.9 -1.8 20 208 1.4 2.5 1014.2 0.0000 0.0000
13:30 21.7 -2.6 19 202 1.1 2.5 1014.1 0.0000 0.0000
13:40 21.9 -2.4 19 187 0.8 2.5 1013.8 0.0000 0.0000
13:51 21.8 -3.1 18 225 0.6 1.7 1013.6 0.0000 0.0000
14:00 21.8 -2.5 19 212 1.1 2.5 1013.5 0.0000 0.0000
14:10 21.9 -2.4 19 199 1.1 1.9 1013.6 0.0000 0.0000
14:20 21.9 -3.1 18 288 0.8 1.9 1013.4 0.0000 0.0000
14:31 21.7 -3.2 18 305 0.6 1.7 1013.5 0.0000 0.0000
14:40 21.4 -4.1 17 332 0.8 1.9 1013.5 0.0000 0.0000
14:50 20.7 -4.6 17 38 0.6 1.4 1013 0.0000 0.0000
15:01 20.4 -4.8 17 341 0.6 1.4 1013 0.0000 0.0000
15:11 20.7 -3.3 19 212 0.8 1.9 1013.2 0.0000 0.0000
15:20 20.8 -3.2 19 197 1.1 2.5 1013.2 0.0000 0.0000
15:31 20.9 -2.5 20 212 0.8 2.2 1013.2 0.0000 0.0000
15:41 20.8 -3.2 19 221 0.8 1.7 1013.2 0.0000 0.0000
15:50 20.7 -3.3 19 205 0.6 1.4 1013.1 0.0000 0.0000
16:00 20.5 -2.8 20 214 0.8 1.9 1013.5 0.0000 0.0000
16:11 20.2 -3.1 20 206 0.6 1.4 1013.5 0.0000 0.0000
16:21 19.9 -3.3 20 209 0.8 1.4 1013.6 0.0000 0.0000
16:30 19.6 -3.5 20 211 0.6 1.4 1013.6 0.0000 0.0000
16:41 19.3 -3.1 21 201 0.6 1.7 1013.6 0.0000 0.0000
16:51 18.9 -2.9 22 201 0.6 1.7 1013.5 0.0000 0.0000
17:01 18.4 -3.3 22 186 0.6 1.1 1013.6 0.0000 0.0000
17:10 17.7 -3.3 23 225 0.3 0.8 1013.8 0.0000 0.0000
17:31 15.9 -3.2 26 146 0.3 1.1 1013.8 0.0000 0.0000
17:40 15.3 -3.6 26 186 0.3 1.4 1013.9 0.0000 0.0000
17:51 14.6 -3.7 27 161 0.3 1.1 1014.1 0.0000 0.0000
18:01 14 -3.7 28 168 0.3 1.4 1014.1 0.0000 0.0000
18:11 13.6 -4 28 156 0.8 1.7 1014.1 0.0000 0.0000
18:21 13.2 -3.9 29 153 0.8 1.7 1014.1 0.0000 0.0000
18:31 12.9 -4.2 29 166 0.6 1.7 1014.3 0.0000 0.0000
18:41 12.5 -4.5 29 152 0.8 1.7 1014.4 0.0000 0.0000
18:51 12.2 -4.7 29 163 0.6 1.9 1014.5 0.0000 0.0000
19:01 11.9 -4.5 30 152 0.8 1.4 1014.4 0.0000 0.0000
19:11 11.5 -4.8 30 158 0.6 1.4 1014.3 0.0000 0.0000
19:21 11.2 -5.1 30 150 0.8 1.9 1014.8 0.0000 0.0000
19:31 11 -5.2 30 149 0.6 1.4 1014.7 0.0000 0.0000
19:41 10.8 -5 31 150 0.6 1.7 1014.8 0.0000 0.0000
19:51 10.5 -5.2 31 150 0.6 1.7 1014.9 0.0000 0.0000
20:01 10.3 -5 32 146 0.8 1.7 1014.9 0.0000 0.0000
20:11 10 -5.3 32 149 0.8 2.2 1014.9 0.0000 0.0000
20:21 10 -5.3 32 142 0.8 2.2 1014.9 0.0000 0.0000
20:31 9.9 -5.3 32 145 0.8 2.2 1015 0.0000 0.0000
20:42 9.8 -5.4 32 145 0.8 1.9 1015 0.0000 0.0000
20:51 9.7 -5.1 33 145 0.8 1.7 1014.9 0.0000 0.0000
21:01 9.7 -5.5 32 147 0.8 1.7 1015 0.0000 0.0000
21:11 9.6 -5.2 33 156 0.6 1.1 1015 0.0000 0.0000
21:22 9.5 -4.9 34 157 0.3 1.1 1015.1 0.0000 0.0000
21:31 9.6 -5.2 33 135 0.6 1.7 1015.2 0.0000 0.0000
21:41 9.9 -5 33 142 0.6 1.7 1015.1 0.0000 0.0000
21:52 10.1 -5.2 32 142 0.6 1.4 1015.2 0.0000 0.0000
22:02 10.3 -5.4 31 143 0.6 1.7 1015.2 0.0000 0.0000
22:11 10.3 -5.4 31 147 0.6 1.4 1015.4 0.0000 0.0000
22:21 10.4 -5.3 31 135 0.3 1.4 1015.4 0.0000 0.0000
22:32 10.3 -5.4 31 135 0.3 1.1 1015.2 0.0000 0.0000
22:41 10.3 -5.4 31 90 0.3 1.4 1015.4 0.0000 0.0000
22:51 10.3 -5.8 30 40 0.6 1.7 1015.4 0.0000 0.0000
23:02 10.4 -6.1 29 90 0.6 1.4 1015.4 0.0000 0.0000
23:12 10.4 -6.5 28 125 0.3 1.1 1015.4 0.0000 0.0000
23:21 10.5 -6.4 28 49 0.6 1.7 1015.4 0.0000 0.0000
23:32 10.4 -6.5 28 45 0.3 0.8 1015.2 0.0000 0.0000
23:42 10.4 -6.5 28 90 0.6 1.4 1015.4 0.0000 0.0000
23:51 10.4 -6.5 28 90 0.3 1.4 1015.4 0.0000 0.0000

DAY STATISTIC

2018-11-18
TEMPERATURE
AVERAGE
13.0
HIGH
21.9
13:21
LOW
7.4
03:09
PRESSURE
AVERAGE
1014.8
HIGH
1016.8
10:00
LOW
1013.0
14:50
DEWPOINT
AVERAGE
-4.3
HIGH
-0.1
11:10
LOW
-6.5
23:12
HUMIDITY
AVERAGE
30
HIGH
39
03:09
LOW
17
12:00
WIND SPEED
AVERAGE
0.6
HIGH
1.4
13:21
WIND GUST
AVERAGE
1.6
HIGH
2.5
08:40
WIND DIRECTION
PREVAILING
SE
53.2%
N
2.1
NE
4.3
E
3.5
SE
53.2
S
20.6
SW
10.6
W
3.5
NW
2.1
PRECIPITATION
RAIN HOUR
0.0
RAIN DAY
0.0
TEMPERATURE (°C)
LOW
7.4
HIGH
21.9
AVERAGE
13.0
PRESSURE (hpa)
LOW
1013.0
HIGH
1016.8
AVERAGE
1014.8
DEVICE